createdAt,value
2023-05-16T00:02:13.763Z,99913.25
2023-05-16T00:05:17.958Z,99908.78
2023-05-16T00:08:20.753Z,99919.91
2023-05-16T00:11:23.668Z,99912.63
2023-05-16T00:14:26.794Z,99911.63
2023-05-16T00:17:29.650Z,99913.44
2023-05-16T00:20:32.314Z,99910.19
2023-05-16T00:23:35.016Z,99910.19
2023-05-16T00:26:37.571Z,99904.53
2023-05-16T00:29:40.139Z,99914.28
2023-05-16T00:32:42.772Z,99908.38
2023-05-16T00:35:45.532Z,99906.53
2023-05-16T00:38:48.247Z,99902.91
2023-05-16T00:41:50.929Z,99918.53
2023-05-16T00:44:53.426Z,99923.53
2023-05-16T00:47:56.141Z,99916.97
2023-05-16T00:50:58.910Z,99923.06
2023-05-16T00:54:01.662Z,99913.50
2023-05-16T00:57:05.355Z,99911.00
2023-05-16T01:00:10.877Z,99911.19
2023-05-16T01:03:13.835Z,99908.81
2023-05-16T01:06:16.491Z,99897.09
2023-05-16T01:09:19.633Z,99886.34
2023-05-16T01:12:32.909Z,99886.34
2023-05-16T01:16:08.070Z,99883.16
2023-05-16T01:19:38.235Z,99873.06
2023-05-16T01:22:51.747Z,99875.06
2023-05-16T01:26:15.265Z,99875.16
2023-05-16T01:29:18.143Z,99882.53
2023-05-16T01:32:22.951Z,99880.34
2023-05-16T01:35:25.981Z,99866.34
2023-05-16T01:38:39.392Z,99865.16
2023-05-16T01:41:47.913Z,99865.78
2023-05-16T01:45:08.680Z,99865.78
2023-05-16T01:48:16.072Z,99879.53
2023-05-16T01:51:22.061Z,99871.78
2023-05-16T01:54:26.414Z,99856.22
2023-05-16T01:57:30.618Z,99863.41
2023-05-16T02:00:36.388Z,99866.97
2023-05-16T02:03:42.260Z,99893.78
2023-05-16T02:06:45.117Z,99896.78
2023-05-16T02:09:50.703Z,99902.87
2023-05-16T02:12:53.315Z,99903.72
2023-05-16T02:15:56.031Z,99882.88
2023-05-16T02:19:01.838Z,99884.16
2023-05-16T02:22:04.733Z,99896.53
2023-05-16T02:25:16.599Z,99903.78
2023-05-16T02:28:22.141Z,99888.97
2023-05-16T02:31:32.607Z,99880.22
2023-05-16T02:34:37.752Z,99868.34
2023-05-16T02:37:40.974Z,99875.06
2023-05-16T02:40:46.332Z,99873.25
2023-05-16T02:43:49.328Z,99853.78
2023-05-16T02:46:52.092Z,99858.03
2023-05-16T02:49:54.733Z,99856.59
2023-05-16T02:52:59.837Z,99861.25
2023-05-16T02:56:02.530Z,99845.22
2023-05-16T02:59:05.244Z,99817.66
2023-05-16T03:02:08.324Z,99816.47
2023-05-16T03:05:14.087Z,99817.91
2023-05-16T03:08:20.089Z,99809.00
2023-05-16T03:11:24.250Z,99800.91
2023-05-16T03:14:26.720Z,99812.44
2023-05-16T03:17:29.400Z,99822.12
2023-05-16T03:20:31.999Z,99827.47
2023-05-16T03:23:34.937Z,99833.75
2023-05-16T03:26:37.937Z,99840.66
2023-05-16T03:29:40.547Z,99830.12
2023-05-16T03:32:46.164Z,99819.22
2023-05-16T03:35:52.450Z,99819.66
2023-05-16T03:38:55.233Z,99816.28
2023-05-16T03:41:57.892Z,99818.91
2023-05-16T03:45:00.638Z,99819.66
2023-05-16T03:48:03.406Z,99831.91
2023-05-16T03:51:06.097Z,99834.59
2023-05-16T03:54:08.694Z,99842.56
2023-05-16T03:57:11.444Z,99842.00
2023-05-16T04:00:14.760Z,99833.72
2023-05-16T04:03:17.381Z,99846.38
2023-05-16T04:06:20.060Z,99847.00
2023-05-16T04:09:22.702Z,99843.97
2023-05-16T04:12:25.430Z,99844.41
2023-05-16T04:15:28.498Z,99848.50
2023-05-16T04:18:31.355Z,99842.00
2023-05-16T04:21:34.151Z,99853.19
2023-05-16T04:24:36.808Z,99859.28
2023-05-16T04:27:39.941Z,99866.59
2023-05-16T04:30:42.944Z,99887.72
2023-05-16T04:33:46.141Z,99899.50
2023-05-16T04:36:48.911Z,99909.06
2023-05-16T04:39:51.732Z,99914.34
2023-05-16T04:42:55.393Z,99923.50
2023-05-16T04:45:59.306Z,99917.53
2023-05-16T04:49:02.287Z,99920.88
2023-05-16T04:52:06.433Z,99929.66
2023-05-16T04:55:11.982Z,99929.72
2023-05-16T04:58:14.595Z,99928.16
2023-05-16T05:01:17.396Z,99924.13
2023-05-16T05:04:20.079Z,99922.19
2023-05-16T05:07:22.771Z,99917.81
2023-05-16T05:10:25.605Z,99915.00
2023-05-16T05:13:28.178Z,99893.31
2023-05-16T05:16:30.919Z,99890.56
2023-05-16T05:19:33.528Z,99878.59
2023-05-16T05:22:36.289Z,99860.31
2023-05-16T05:25:39.728Z,99863.75
2023-05-16T05:28:47.784Z,99866.22
2023-05-16T05:31:53.519Z,99876.41
2023-05-16T05:34:56.099Z,99857.88
2023-05-16T05:37:58.668Z,99871.09
2023-05-16T05:41:01.331Z,99863.78
2023-05-16T05:44:04.163Z,99869.72
2023-05-16T05:47:07.555Z,99872.19
2023-05-16T05:50:13.542Z,99869.34
2023-05-16T05:53:16.193Z,99872.78
2023-05-16T05:56:27.571Z,99857.50
2023-05-16T05:59:30.221Z,99864.63
2023-05-16T06:02:32.984Z,99863.78
2023-05-16T06:05:35.652Z,99858.09
2023-05-16T06:08:38.370Z,99843.69
2023-05-16T06:11:46.072Z,99842.28
2023-05-16T06:14:48.714Z,99853.09
2023-05-16T06:17:52.007Z,99856.13
2023-05-16T06:20:57.756Z,99853.47
2023-05-16T06:24:00.587Z,99860.81
2023-05-16T06:27:03.301Z,99860.59
2023-05-16T06:30:06.639Z,99871.19
2023-05-16T06:33:12.268Z,99878.13
2023-05-16T06:36:17.845Z,99897.44
2023-05-16T06:39:20.789Z,99888.28
2023-05-16T06:42:23.527Z,99882.19
2023-05-16T06:45:27.114Z,99871.22
2023-05-16T06:48:30.370Z,99854.50
2023-05-16T06:51:33.084Z,99871.22
2023-05-16T06:54:39.219Z,99877.31
2023-05-16T06:57:42.052Z,99893.00
2023-05-16T07:00:44.668Z,99908.25
2023-05-16T07:03:50.335Z,99920.47
2023-05-16T07:06:53.608Z,99926.03
2023-05-16T07:09:56.247Z,99904.69
2023-05-16T07:13:01.709Z,99891.47
2023-05-16T07:16:04.754Z,99879.28
2023-05-16T07:19:08.260Z,99868.91
2023-05-16T07:22:14.409Z,99870.94
2023-05-16T07:25:17.497Z,99875.81
2023-05-16T07:28:20.468Z,99874.00
2023-05-16T07:31:24.494Z,99880.72
2023-05-16T07:34:27.098Z,99883.75
2023-05-16T07:37:31.158Z,99880.50
2023-05-16T07:40:34.096Z,99886.59
2023-05-16T07:43:37.102Z,99893.72
2023-05-16T07:46:40.097Z,99891.47
2023-05-16T07:49:43.071Z,99881.28
2023-05-16T07:52:45.740Z,99863.75
2023-05-16T07:55:49.482Z,99871.69
2023-05-16T07:58:52.131Z,99873.94
2023-05-16T08:01:55.820Z,99878.41
2023-05-16T08:04:58.589Z,99879.44
2023-05-16T08:08:04.759Z,99889.63
2023-05-16T08:11:07.496Z,99878.03
2023-05-16T08:14:10.158Z,99878.63
2023-05-16T08:17:15.973Z,99878.25
2023-05-16T08:20:18.799Z,99878.44
2023-05-16T08:23:21.547Z,99865.19
2023-05-16T08:26:25.234Z,99855.84
2023-05-16T08:29:27.870Z,99848.50
2023-05-16T08:32:30.576Z,99843.59
2023-05-16T08:35:35.687Z,99834.25
2023-05-16T08:38:38.565Z,99835.28
2023-05-16T08:41:41.392Z,99840.97
2023-05-16T08:44:44.022Z,99851.38
2023-05-16T08:47:48.880Z,99858.28
2023-05-16T08:50:52.102Z,99862.56
2023-05-16T08:54:01.347Z,99873.78
2023-05-16T08:57:04.387Z,99875.81
2023-05-16T09:00:12.425Z,99890.88
2023-05-16T09:03:20.822Z,99901.47
2023-05-16T09:06:24.974Z,99898.44
2023-05-16T09:09:27.888Z,99894.56
2023-05-16T09:12:30.992Z,99887.28
2023-05-16T09:15:34.671Z,99880.56
2023-05-16T09:18:38.036Z,99887.69
2023-05-16T09:21:41.141Z,99898.25
2023-05-16T09:24:45.603Z,99891.12
2023-05-16T09:27:48.935Z,99870.75
2023-05-16T09:30:53.470Z,99868.09
2023-05-16T09:33:59.321Z,99880.31
2023-05-16T09:37:02.008Z,99887.66
2023-05-16T09:40:05.254Z,99893.41
2023-05-16T09:43:08.705Z,99881.13
2023-05-16T09:46:15.785Z,99862.44
2023-05-16T09:49:18.501Z,99856.47
2023-05-16T09:52:22.287Z,99854.25
2023-05-16T09:55:26.226Z,99858.94
2023-05-16T09:58:37.646Z,99876.03
2023-05-16T10:01:40.905Z,99885.59
2023-05-16T10:04:45.166Z,99884.78
2023-05-16T10:07:48.007Z,99880.88
2023-05-16T10:10:56.077Z,99893.13
2023-05-16T10:13:58.826Z,99890.06
2023-05-16T10:17:02.016Z,99879.47
2023-05-16T10:20:07.435Z,99880.50
2023-05-16T10:23:14.894Z,99879.06
2023-05-16T10:26:21.650Z,99869.72
2023-05-16T10:29:25.267Z,99870.31
2023-05-16T10:32:28.349Z,99860.75
2023-05-16T10:35:35.120Z,99865.41
2023-05-16T10:38:39.213Z,99875.19
2023-05-16T10:41:42.901Z,99880.66
2023-05-16T10:44:54.768Z,99886.16
2023-05-16T10:48:06.954Z,99896.97
2023-05-16T10:51:38.987Z,99885.56
2023-05-16T10:54:44.640Z,99869.25
2023-05-16T10:57:47.771Z,99870.06
2023-05-16T11:00:50.538Z,99849.09
2023-05-16T11:03:59.534Z,99840.53
2023-05-16T11:07:03.901Z,99829.75
2023-05-16T11:10:08.246Z,99826.31
2023-05-16T11:13:11.133Z,99816.94
2023-05-16T11:16:30.154Z,99802.28
2023-05-16T11:19:47.273Z,99805.19
2023-05-16T11:22:49.923Z,99803.13
2023-05-16T11:25:57.455Z,99804.56
2023-05-16T11:29:00.361Z,99801.28
2023-05-16T11:32:05.224Z,99799.44
2023-05-16T11:35:12.110Z,99788.25
2023-05-16T11:38:19.923Z,99778.47
2023-05-16T11:41:22.751Z,99776.84
2023-05-16T11:44:25.421Z,99770.31
2023-05-16T11:47:30.172Z,99761.78
2023-05-16T11:50:34.868Z,99753.19
2023-05-16T11:53:38.494Z,99752.81
2023-05-16T11:56:41.615Z,99751.56
2023-05-16T11:59:44.389Z,99750.56
2023-05-16T12:02:48.560Z,99744.25
2023-05-16T12:05:55.592Z,99746.91
2023-05-16T12:08:58.319Z,99742.00
2023-05-16T12:12:05.879Z,99743.03
2023-05-16T12:15:09.815Z,99741.59
2023-05-16T12:18:15.653Z,99727.75
2023-05-16T12:21:18.418Z,99731.81
2023-05-16T12:24:22.081Z,99736.69
2023-05-16T12:27:28.386Z,99724.06
2023-05-16T12:30:32.849Z,99718.75
2023-05-16T12:33:38.078Z,99727.72
2023-05-16T12:36:40.830Z,99723.44
2023-05-16T12:39:43.740Z,99721.81
2023-05-16T12:42:52.641Z,99719.37
2023-05-16T12:45:57.492Z,99719.78
2023-05-16T12:49:05.754Z,99721.41
2023-05-16T12:52:18.654Z,99724.06
2023-05-16T12:55:22.660Z,99728.13
2023-05-16T12:58:25.629Z,99716.94
2023-05-16T13:01:28.550Z,99722.44
2023-05-16T13:04:31.864Z,99720.00
2023-05-16T13:07:35.273Z,99720.00
2023-05-16T13:10:38.139Z,99709.00
2023-05-16T13:13:40.758Z,99714.91
2023-05-16T13:16:44.271Z,99707.38
2023-05-16T13:19:48.818Z,99712.88
2023-05-16T13:22:51.807Z,99708.59
2023-05-16T13:25:54.648Z,99703.91
2023-05-16T13:28:57.348Z,99700.66
2023-05-16T13:32:00.183Z,99692.72
2023-05-16T13:35:04.298Z,99692.09
2023-05-16T13:38:07.066Z,99691.28
2023-05-16T13:41:09.785Z,99687.22
2023-05-16T13:44:13.276Z,99692.50
2023-05-16T13:47:16.190Z,99681.31
2023-05-16T13:50:18.906Z,99668.06
2023-05-16T13:53:21.674Z,99673.16
2023-05-16T13:56:24.378Z,99670.09
2023-05-16T13:59:41.065Z,99671.53
2023-05-16T14:02:49.879Z,99672.53
2023-05-16T14:05:52.564Z,99671.53
2023-05-16T14:08:55.340Z,99669.50
2023-05-16T14:11:58.318Z,99672.75
2023-05-16T14:15:01.204Z,99659.09
2023-05-16T14:18:05.033Z,99660.72
2023-05-16T14:21:07.986Z,99663.19
2023-05-16T14:24:10.721Z,99645.66
2023-05-16T14:27:15.336Z,99646.88
2023-05-16T14:30:18.041Z,99642.19
2023-05-16T14:33:20.840Z,99640.16
2023-05-16T14:36:23.584Z,99638.31
2023-05-16T14:39:27.317Z,99629.56
2023-05-16T14:42:30.106Z,99628.56
2023-05-16T14:45:32.796Z,99622.03
2023-05-16T14:48:35.451Z,99614.31
2023-05-16T14:51:38.136Z,99622.25
2023-05-16T14:54:40.891Z,99612.44
2023-05-16T14:57:45.601Z,99607.34
2023-05-16T15:00:48.558Z,99603.91
2023-05-16T15:03:55.996Z,99612.44
2023-05-16T15:06:59.362Z,99609.78
2023-05-16T15:10:02.161Z,99615.09
2023-05-16T15:13:04.971Z,99614.28
2023-05-16T15:16:08.078Z,99613.69
2023-05-16T15:19:11.277Z,99601.66
2023-05-16T15:22:14.267Z,99601.44
2023-05-16T15:25:17.490Z,99616.09
2023-05-16T15:28:22.463Z,99619.34
2023-05-16T15:31:25.739Z,99600.00
2023-05-16T15:34:29.424Z,99607.75
2023-05-16T15:37:32.888Z,99608.12
2023-05-16T15:40:35.636Z,99601.59
2023-05-16T15:43:38.812Z,99605.88
2023-05-16T15:46:41.782Z,99595.28
2023-05-16T15:49:44.548Z,99581.03
2023-05-16T15:52:47.216Z,99593.28
2023-05-16T15:55:50.052Z,99579.81
2023-05-16T15:58:56.117Z,99584.31
2023-05-16T16:01:59.184Z,99580.41
2023-05-16T16:05:02.011Z,99572.91
2023-05-16T16:08:05.080Z,99559.44
2023-05-16T16:11:07.910Z,99569.81
2023-05-16T16:14:11.328Z,99567.37
2023-05-16T16:17:17.380Z,99567.37
2023-05-16T16:20:23.168Z,99562.91
2023-05-16T16:23:26.138Z,99567.37
2023-05-16T16:26:28.857Z,99568.19
2023-05-16T16:29:31.779Z,99556.19
2023-05-16T16:32:34.529Z,99557.00
2023-05-16T16:35:37.347Z,99555.97
2023-05-16T16:38:43.251Z,99550.91
2023-05-16T16:41:46.204Z,99549.47
2023-05-16T16:44:49.286Z,99547.22
2023-05-16T16:47:52.718Z,99543.13
2023-05-16T16:50:56.926Z,99549.47
2023-05-16T16:53:59.832Z,99553.94
2023-05-16T16:57:02.562Z,99553.13
2023-05-16T17:00:05.964Z,99551.09
2023-05-16T17:03:08.848Z,99556.16
2023-05-16T17:06:11.692Z,99553.53
2023-05-16T17:09:15.578Z,99544.75
2023-05-16T17:12:22.431Z,99548.44
2023-05-16T17:15:25.330Z,99547.41
2023-05-16T17:18:28.257Z,99555.97
2023-05-16T17:21:31.661Z,99555.16
2023-05-16T17:24:34.919Z,99565.53
2023-05-16T17:27:37.788Z,99556.56
2023-05-16T17:30:40.559Z,99551.47
2023-05-16T17:33:43.662Z,99561.06
2023-05-16T17:36:46.379Z,99569.00
2023-05-16T17:39:52.613Z,99575.09
2023-05-16T17:42:55.329Z,99569.81
2023-05-16T17:45:58.309Z,99568.78
2023-05-16T17:49:01.365Z,99574.09
2023-05-16T17:52:04.672Z,99559.00
2023-05-16T17:55:09.510Z,99552.06
2023-05-16T17:58:13.071Z,99557.59
2023-05-16T18:01:15.917Z,99567.37
2023-05-16T18:04:20.967Z,99559.63
2023-05-16T18:07:25.477Z,99552.50
2023-05-16T18:10:33.935Z,99552.28
2023-05-16T18:13:42.832Z,99557.16
2023-05-16T18:16:45.886Z,99550.25
2023-05-16T18:19:48.759Z,99550.03
2023-05-16T18:22:52.123Z,99553.50
2023-05-16T18:25:55.132Z,99558.19
2023-05-16T18:28:58.308Z,99563.28
2023-05-16T18:32:01.505Z,99574.47
2023-05-16T18:35:04.929Z,99576.09
2023-05-16T18:38:10.574Z,99569.19
2023-05-16T18:41:20.926Z,99568.97
2023-05-16T18:44:23.695Z,99566.09
2023-05-16T18:47:26.922Z,99564.28
2023-05-16T18:50:29.805Z,99570.97
2023-05-16T18:53:32.516Z,99574.44
2023-05-16T18:56:35.270Z,99571.81
2023-05-16T18:59:38.163Z,99564.44
2023-05-16T19:02:42.613Z,99559.97
2023-05-16T19:05:46.171Z,99551.41
2023-05-16T19:08:49.541Z,99555.28
2023-05-16T19:11:52.698Z,99551.00
2023-05-16T19:14:55.648Z,99557.72
2023-05-16T19:17:58.596Z,99564.84
2023-05-16T19:21:01.647Z,99568.09
2023-05-16T19:24:04.949Z,99571.34
2023-05-16T19:27:07.966Z,99577.03
2023-05-16T19:30:12.102Z,99571.72
2023-05-16T19:33:15.279Z,99575.00
2023-05-16T19:36:18.081Z,99578.66
2023-05-16T19:39:20.994Z,99581.09
2023-05-16T19:42:23.890Z,99577.44
2023-05-16T19:45:26.882Z,99577.03
2023-05-16T19:48:29.864Z,99576.22
2023-05-16T19:51:41.257Z,99577.84
2023-05-16T19:54:44.805Z,99582.72
2023-05-16T19:57:47.665Z,99573.16
2023-05-16T20:00:51.109Z,99553.78
2023-05-16T20:03:53.887Z,99565.41
2023-05-16T20:06:56.530Z,99571.09
2023-05-16T20:09:59.278Z,99566.22
2023-05-16T20:13:02.013Z,99577.41
2023-05-16T20:16:05.573Z,99574.37
2023-05-16T20:19:08.585Z,99572.31
2023-05-16T20:22:11.661Z,99561.94
2023-05-16T20:25:14.628Z,99558.25
2023-05-16T20:28:17.284Z,99564.38
2023-05-16T20:31:20.147Z,99560.69
2023-05-16T20:34:22.859Z,99559.87
2023-05-16T20:37:28.260Z,99559.06
2023-05-16T20:40:30.965Z,99554.59
2023-05-16T20:43:34.864Z,99550.09
2023-05-16T20:46:42.335Z,99551.50
2023-05-16T20:49:45.073Z,99538.84
2023-05-16T20:52:50.924Z,99545.78
2023-05-16T20:55:55.274Z,99546.00
2023-05-16T20:59:00.920Z,99552.09
2023-05-16T21:02:04.545Z,99551.72
2023-05-16T21:05:23.371Z,99549.88
2023-05-16T21:08:30.148Z,99549.88
2023-05-16T21:11:36.263Z,99558.03
2023-05-16T21:14:39.078Z,99554.59
2023-05-16T21:17:43.767Z,99534.63
2023-05-16T21:20:46.765Z,99538.91
2023-05-16T21:23:52.564Z,99538.09
2023-05-16T21:26:55.239Z,99539.50
2023-05-16T21:29:57.868Z,99547.88
2023-05-16T21:33:00.686Z,99548.25
2023-05-16T21:36:04.046Z,99549.06
2023-05-16T21:39:06.750Z,99546.22
2023-05-16T21:42:09.375Z,99551.72
2023-05-16T21:45:16.706Z,99558.47
2023-05-16T21:48:19.516Z,99554.16
2023-05-16T21:51:22.321Z,99553.34
2023-05-16T21:54:24.952Z,99564.97
2023-05-16T21:57:27.665Z,99555.41
2023-05-16T22:00:30.376Z,99559.06
2023-05-16T22:03:33.126Z,99556.44
2023-05-16T22:06:36.036Z,99562.75
2023-05-16T22:09:38.673Z,99556.66
2023-05-16T22:12:41.298Z,99561.13
2023-05-16T22:15:49.267Z,99568.28
2023-05-16T22:18:58.790Z,99557.25
2023-05-16T22:22:01.855Z,99559.69
2023-05-16T22:25:05.352Z,99565.19
2023-05-16T22:28:08.026Z,99564.38
2023-05-16T22:31:10.709Z,99555.84
2023-05-16T22:34:13.400Z,99548.31
2023-05-16T22:37:16.014Z,99545.88
2023-05-16T22:40:18.715Z,99546.09
2023-05-16T22:43:21.352Z,99548.72
2023-05-16T22:46:24.086Z,99542.03
2023-05-16T22:49:26.734Z,99538.56
2023-05-16T22:52:29.460Z,99544.88
2023-05-16T22:55:32.215Z,99551.00
2023-05-16T22:58:35.235Z,99545.91
2023-05-16T23:01:41.096Z,99550.38
2023-05-16T23:04:47.432Z,99551.22
2023-05-16T23:07:52.903Z,99569.53
2023-05-16T23:10:56.077Z,99537.22
2023-05-16T23:13:58.767Z,99559.53
2023-05-16T23:17:01.464Z,99554.47
2023-05-16T23:20:05.410Z,99549.38
2023-05-16T23:23:09.251Z,99552.22
2023-05-16T23:26:14.817Z,99560.78
2023-05-16T23:29:17.605Z,99548.81
2023-05-16T23:32:20.306Z,99569.97
2023-05-16T23:35:23.045Z,99568.34
2023-05-16T23:38:26.096Z,99567.94
2023-05-16T23:41:28.755Z,99574.25
2023-05-16T23:44:31.794Z,99580.00
2023-05-16T23:47:34.852Z,99592.41
2023-05-16T23:50:37.533Z,99589.97
2023-05-16T23:53:40.217Z,99587.31
2023-05-16T23:56:42.933Z,99569.00
2023-05-16T23:59:45.613Z,99571.25
